Time;durP1;ratioP1;P1;durP2;ratioP2;P2;SDS_P1;SDS_P2;PMS_P1;PMS_P2;Temp;Humidity;BMP_temperature;BMP_pressure;BME280_temperature;BME280_humidity;BME280_pressure;Samples;Min_cycle;Max_cycle;Signal;HPM_P1;HPM_P2
2023/08/26 00:00:39;;;;;;;7.93;3.65;;;14.30;85.60;;;;;;4969333;28;20149;-77
2023/08/26 00:03:05;;;;;;;8.25;3.30;;;14.30;85.80;;;;;;4964248;28;20112;-78
2023/08/26 00:05:31;;;;;;;9.43;3.60;;;14.30;86.00;;;;;;4967654;28;20088;-77
2023/08/26 00:07:56;;;;;;;10.80;3.45;;;14.30;86.00;;;;;;4965897;28;20054;-77
2023/08/26 00:10:22;;;;;;;8.52;3.45;;;14.20;85.80;;;;;;4973845;28;20035;-77
2023/08/26 00:12:48;;;;;;;8.40;3.80;;;14.20;86.00;;;;;;4997027;28;20373;-77
2023/08/26 00:15:14;;;;;;;10.32;3.58;;;14.20;85.90;;;;;;4984305;28;20019;-77
2023/08/26 00:17:40;;;;;;;8.93;3.70;;;14.20;86.10;;;;;;4962429;28;20047;-77
2023/08/26 00:20:08;;;;;;;10.52;3.80;;;14.20;85.90;;;;;;4966511;28;20033;-77
2023/08/26 00:22:34;;;;;;;8.43;3.20;;;14.20;86.10;;;;;;4989858;28;20044;-77
2023/08/26 00:25:00;;;;;;;7.07;3.63;;;14.20;86.40;;;;;;4946275;28;20466;-77
2023/08/26 00:27:25;;;;;;;12.90;3.85;;;14.20;86.20;;;;;;4944879;28;20047;-77
2023/08/26 00:29:51;;;;;;;8.10;4.30;;;14.20;86.20;;;;;;4962339;28;20106;-77
2023/08/26 00:32:17;;;;;;;10.30;3.72;;;14.20;86.30;;;;;;4951192;28;20118;-77
2023/08/26 00:34:43;;;;;;;7.25;3.50;;;14.10;86.40;;;;;;4945497;28;20164;-77
2023/08/26 00:37:09;;;;;;;8.30;3.90;;;14.10;86.30;;;;;;4943320;28;20063;-77
2023/08/26 00:39:35;;;;;;;7.47;3.28;;;14.10;86.40;;;;;;4954957;28;20078;-77
2023/08/26 00:42:00;;;;;;;7.88;3.70;;;14.10;86.40;;;;;;4955011;28;20040;-78
2023/08/26 00:44:26;;;;;;;11.75;4.32;;;14.10;86.60;;;;;;4946546;28;20093;-78
2023/08/26 00:46:52;;;;;;;9.77;4.03;;;14.10;86.70;;;;;;4951425;28;20047;-78
2023/08/26 00:49:18;;;;;;;8.65;3.67;;;14.00;86.90;;;;;;4958766;28;20046;-77
2023/08/26 00:51:44;;;;;;;9.40;3.72;;;14.00;87.00;;;;;;4962518;28;20031;-78
2023/08/26 00:54:11;;;;;;;6.43;3.65;;;14.00;86.90;;;;;;4950337;28;20043;-78
2023/08/26 00:56:37;;;;;;;8.05;3.80;;;13.90;87.00;;;;;;4947018;28;20115;-78
2023/08/26 00:59:02;;;;;;;9.48;3.63;;;14.00;86.90;;;;;;4954151;28;20768;-77
2023/08/26 01:01:32;;;;;;;9.23;4.35;;;14.00;87.00;;;;;;4953554;28;20092;-78
2023/08/26 01:03:58;;;;;;;9.27;4.32;;;13.90;87.10;;;;;;4949571;28;20039;-78
2023/08/26 01:06:23;;;;;;;9.07;3.90;;;14.00;87.20;;;;;;4949762;28;20370;-77
2023/08/26 01:08:50;;;;;;;10.95;5.10;;;14.00;87.10;;;;;;4946344;28;20317;-77
2023/08/26 01:11:28;;;;;;;12.32;5.18;;;13.90;87.20;;;;;;4949055;29;20034;-76
2023/08/26 01:14:23;;;;;;;9.45;5.63;;;13.90;87.30;;;;;;4952852;28;20078;-77
2023/08/26 01:16:49;;;;;;;10.73;5.70;;;14.00;87.20;;;;;;4950047;28;20377;-77
2023/08/26 01:19:34;;;;;;;10.15;6.47;;;13.90;87.30;;;;;;4961540;28;20041;-77
2023/08/26 01:22:04;;;;;;;10.25;5.85;;;13.90;87.20;;;;;;4964431;28;20047;-77
2023/08/26 01:24:31;;;;;;;13.25;7.43;;;13.80;87.20;;;;;;4951400;28;20105;-77
2023/08/26 01:26:57;;;;;;;14.48;7.38;;;13.80;87.30;;;;;;4948848;28;20081;-78
2023/08/26 01:29:23;;;;;;;11.73;6.40;;;13.90;87.30;;;;;;4964372;28;20035;-77
2023/08/26 01:32:00;;;;;;;12.75;6.68;;;13.90;87.40;;;;;;4987840;28;20029;-78
2023/08/26 01:34:30;;;;;;;10.20;5.72;;;13.90;87.40;;;;;;4970059;28;20093;-77
2023/08/26 01:36:58;;;;;;;11.55;5.70;;;13.80;87.40;;;;;;4973886;28;20063;-77
2023/08/26 01:39:25;;;;;;;9.57;5.20;;;13.80;87.50;;;;;;4949683;28;20031;-77
2023/08/26 01:41:51;;;;;;;11.80;5.95;;;13.80;87.50;;;;;;4952720;28;20050;-77
2023/08/26 01:44:18;;;;;;;8.55;5.15;;;13.80;87.50;;;;;;4965767;28;20034;-77
2023/08/26 01:46:44;;;;;;;9.60;4.35;;;13.80;87.50;;;;;;4964497;28;20027;-77
2023/08/26 01:49:10;;;;;;;9.75;4.57;;;13.80;87.50;;;;;;4964315;28;20497;-78
2023/08/26 01:51:36;;;;;;;7.82;4.45;;;13.80;87.60;;;;;;4965815;28;20053;-77
2023/08/26 01:54:03;;;;;;;9.70;4.32;;;13.70;87.80;;;;;;4966752;28;20042;-77
2023/08/26 01:56:29;;;;;;;8.38;4.95;;;13.70;87.70;;;;;;4967355;28;20020;-77
2023/08/26 01:58:54;;;;;;;7.65;4.07;;;13.70;87.70;;;;;;4960860;28;20039;-78
2023/08/26 02:01:20;;;;;;;12.32;4.72;;;13.70;87.80;;;;;;4945973;28;20535;-77
2023/08/26 02:03:46;;;;;;;11.85;5.10;;;13.70;87.80;;;;;;4948795;28;20578;-77
2023/08/26 02:06:11;;;;;;;8.82;4.72;;;13.70;88.00;;;;;;4951801;28;20461;-77
2023/08/26 02:08:37;;;;;;;9.40;4.60;;;13.60;88.10;;;;;;4958495;28;20401;-77
2023/08/26 02:11:02;;;;;;;9.02;4.60;;;13.60;88.20;;;;;;4947028;28;20031;-77
2023/08/26 02:13:28;;;;;;;11.25;4.78;;;13.60;88.10;;;;;;4946834;28;20193;-77
2023/08/26 02:15:55;;;;;;;8.77;4.28;;;13.60;88.20;;;;;;4953968;28;20340;-77
2023/08/26 02:18:21;;;;;;;7.80;4.10;;;13.60;88.20;;;;;;4954851;28;20600;-77
2023/08/26 02:20:48;;;;;;;9.98;4.57;;;13.60;88.30;;;;;;4950175;28;20031;-77
2023/08/26 02:23:14;;;;;;;8.10;4.10;;;13.70;88.50;;;;;;4945414;28;20061;-77
2023/08/26 02:25:40;;;;;;;12.07;4.55;;;13.60;88.40;;;;;;4944777;28;20470;-78
2023/08/26 02:28:07;;;;;;;10.07;4.47;;;13.70;88.40;;;;;;4954741;28;20422;-77
2023/08/26 02:30:32;;;;;;;8.10;4.40;;;13.70;88.60;;;;;;4971696;28;20379;-77
2023/08/26 02:32:58;;;;;;;10.57;4.80;;;13.60;88.60;;;;;;4970013;28;20042;-77
2023/08/26 02:35:24;;;;;;;11.70;4.68;;;13.70;88.50;;;;;;4957949;28;20024;-77
2023/08/26 02:37:49;;;;;;;9.32;4.10;;;13.70;88.60;;;;;;4979932;28;20052;-77
2023/08/26 02:40:15;;;;;;;6.93;3.75;;;13.70;88.50;;;;;;4939037;28;20039;-77
2023/08/26 02:42:41;;;;;;;10.23;3.92;;;13.70;88.70;;;;;;4956532;28;20063;-77
2023/08/26 02:45:07;;;;;;;12.20;4.28;;;13.70;88.60;;;;;;4947067;28;20035;-77
2023/08/26 02:47:32;;;;;;;7.93;3.85;;;13.70;88.60;;;;;;4943579;28;20110;-78
2023/08/26 02:49:58;;;;;;;9.93;4.18;;;13.60;88.80;;;;;;4951560;28;20204;-77
2023/08/26 02:52:24;;;;;;;10.38;4.30;;;13.70;88.90;;;;;;4951848;28;20047;-77
2023/08/26 02:54:49;;;;;;;10.10;4.13;;;13.70;88.90;;;;;;4959886;28;20471;-79
2023/08/26 02:57:16;;;;;;;7.90;4.00;;;13.70;88.90;;;;;;4942790;28;20394;-77
2023/08/26 02:59:42;;;;;;;9.13;4.80;;;13.60;89.10;;;;;;4940967;28;20059;-77
2023/08/26 03:02:08;;;;;;;7.47;4.38;;;13.70;89.10;;;;;;4956849;28;20124;-78
2023/08/26 03:04:34;;;;;;;10.20;4.20;;;13.70;89.10;;;;;;4947935;28;20043;-77
2023/08/26 03:07:00;;;;;;;8.68;4.63;;;13.70;89.00;;;;;;4953034;28;20042;-77
2023/08/26 03:09:28;;;;;;;9.15;4.63;;;13.70;89.00;;;;;;4951252;28;20062;-77
2023/08/26 03:11:54;;;;;;;9.93;4.78;;;13.70;89.10;;;;;;4948789;28;20055;-77
2023/08/26 03:14:19;;;;;;;7.50;4.07;;;13.80;89.00;;;;;;4952977;28;20237;-78
2023/08/26 03:16:45;;;;;;;10.07;4.40;;;13.70;88.90;;;;;;4950654;28;20411;-78
2023/08/26 03:19:11;;;;;;;10.00;4.53;;;13.70;88.90;;;;;;4968476;28;20386;-78
2023/08/26 03:21:36;;;;;;;7.18;4.40;;;13.70;88.90;;;;;;4966964;28;20472;-77
2023/08/26 03:24:02;;;;;;;8.43;4.10;;;13.70;89.00;;;;;;4952165;28;20067;-78
2023/08/26 03:26:28;;;;;;;9.25;4.35;;;13.70;89.00;;;;;;4956256;28;20133;-77
2023/08/26 03:28:53;;;;;;;10.20;4.13;;;13.70;89.00;;;;;;4943613;28;20396;-77
2023/08/26 03:31:19;;;;;;;8.18;4.45;;;13.70;88.90;;;;;;4946765;28;20037;-78
2023/08/26 03:33:45;;;;;;;10.77;5.30;;;13.70;88.90;;;;;;4962588;28;20053;-77
2023/08/26 03:36:10;;;;;;;8.52;4.40;;;13.60;88.90;;;;;;4975956;28;20106;-78
2023/08/26 03:38:36;;;;;;;7.80;4.20;;;13.60;89.10;;;;;;4951993;28;20038;-78
2023/08/26 03:41:05;;;;;;;10.27;4.85;;;13.70;89.00;;;;;;4943750;28;20062;-78
2023/08/26 03:43:31;;;;;;;9.45;5.00;;;13.70;89.10;;;;;;4947615;28;20082;-77
2023/08/26 03:45:57;;;;;;;7.47;4.05;;;13.70;89.20;;;;;;4956680;28;20039;-78
2023/08/26 03:48:23;;;;;;;10.60;4.22;;;13.80;89.20;;;;;;4998589;28;20109;-78
2023/08/26 03:50:58;;;;;;;7.40;4.30;;;13.80;89.10;;;;;;5043972;28;20048;-77
2023/08/26 03:53:24;;;;;;;10.27;4.45;;;13.90;89.20;;;;;;4966949;28;20043;-78
2023/08/26 03:55:50;;;;;;;9.20;4.22;;;13.80;89.10;;;;;;4947420;28;20058;-78
2023/08/26 03:58:16;;;;;;;10.48;4.05;;;13.90;89.00;;;;;;4946126;28;20074;-78
2023/08/26 04:00:41;;;;;;;7.30;4.57;;;13.90;89.00;;;;;;4961629;28;20036;-78
2023/08/26 04:03:07;;;;;;;8.07;4.32;;;14.00;89.10;;;;;;4949510;28;20551;-78
2023/08/26 04:05:33;;;;;;;8.52;4.32;;;14.00;89.10;;;;;;4993899;28;20485;-78
2023/08/26 04:08:03;;;;;;;8.70;4.55;;;14.00;89.10;;;;;;4966273;28;20039;-78
2023/08/26 04:10:29;;;;;;;9.95;4.60;;;14.10;89.00;;;;;;5006822;28;20032;-77
2023/08/26 04:13:00;;;;;;;9.18;4.32;;;14.10;89.00;;;;;;4969204;28;20089;-78
2023/08/26 04:15:26;;;;;;;9.82;4.45;;;14.10;88.90;;;;;;4963051;28;20037;-78
2023/08/26 04:17:52;;;;;;;6.43;4.22;;;14.20;88.70;;;;;;4983456;28;20044;-77
2023/08/26 04:20:18;;;;;;;8.60;4.20;;;14.20;88.70;;;;;;4974151;28;20022;-77
2023/08/26 04:22:44;;;;;;;9.82;4.70;;;14.20;88.70;;;;;;4970551;28;20113;-78
2023/08/26 04:25:09;;;;;;;9.25;4.57;;;14.20;88.60;;;;;;4965274;28;20575;-79
2023/08/26 04:27:35;;;;;;;7.75;4.35;;;14.30;88.60;;;;;;4956249;28;20514;-78
2023/08/26 04:30:01;;;;;;;8.15;4.78;;;14.30;88.70;;;;;;4961466;28;20031;-78
2023/08/26 04:32:27;;;;;;;13.02;4.05;;;14.30;88.60;;;;;;4964251;28;20042;-78
2023/08/26 04:34:52;;;;;;;11.02;3.95;;;14.40;88.50;;;;;;4941684;28;20135;-78
2023/08/26 04:37:22;;;;;;;12.20;4.70;;;14.30;88.50;;;;;;4955407;28;20482;-78
2023/08/26 04:39:48;;;;;;;10.38;4.95;;;14.30;88.50;;;;;;4969984;28;20334;-78
2023/08/26 04:42:14;;;;;;;9.52;4.57;;;14.40;88.50;;;;;;4955523;28;20055;-78
2023/08/26 04:44:40;;;;;;;8.23;4.28;;;14.40;88.50;;;;;;4942445;28;20421;-76
2023/08/26 04:47:05;;;;;;;9.15;4.53;;;14.40;88.30;;;;;;4967231;28;20047;-76
2023/08/26 04:49:31;;;;;;;9.23;4.13;;;14.40;88.20;;;;;;4949797;28;20501;-76
2023/08/26 04:51:57;;;;;;;8.20;4.10;;;14.40;88.10;;;;;;4945549;28;20535;-76
2023/08/26 04:54:24;;;;;;;8.07;3.90;;;14.40;88.00;;;;;;4949786;28;20134;-76
2023/08/26 04:56:49;;;;;;;7.68;3.92;;;14.40;87.90;;;;;;4951138;28;20114;-76
2023/08/26 04:59:15;;;;;;;7.18;4.05;;;14.40;87.90;;;;;;4948630;28;20048;-76
2023/08/26 05:01:41;;;;;;;8.75;3.75;;;14.40;88.00;;;;;;4944475;28;20398;-76
2023/08/26 05:04:07;;;;;;;8.88;4.63;;;14.40;87.80;;;;;;4962370;28;20046;-76
2023/08/26 05:06:32;;;;;;;9.70;4.25;;;14.40;87.80;;;;;;4969508;28;20019;-76
2023/08/26 05:08:58;;;;;;;9.73;4.00;;;14.40;87.70;;;;;;4949566;28;20434;-77
2023/08/26 05:11:24;;;;;;;9.13;4.00;;;14.40;87.60;;;;;;4951466;28;20552;-76
2023/08/26 05:13:49;;;;;;;8.30;3.80;;;14.40;87.60;;;;;;4944039;28;20044;-76
2023/08/26 05:16:15;;;;;;;8.80;3.85;;;14.40;87.50;;;;;;4946820;29;20031;-76
2023/08/26 05:18:41;;;;;;;9.07;4.18;;;14.40;87.40;;;;;;4942537;28;20122;-76
2023/08/26 05:21:06;;;;;;;11.50;4.80;;;14.40;87.40;;;;;;5036377;28;20024;-75
2023/08/26 05:23:32;;;;;;;9.85;3.83;;;14.40;87.30;;;;;;4978806;28;20057;-76
2023/08/26 05:25:58;;;;;;;8.75;3.60;;;14.50;87.20;;;;;;4943737;28;20474;-76
2023/08/26 05:28:24;;;;;;;9.15;3.80;;;14.60;87.20;;;;;;4980581;28;20051;-76
2023/08/26 05:30:50;;;;;;;8.35;3.80;;;14.50;87.10;;;;;;4946449;28;20050;-76
2023/08/26 05:33:15;;;;;;;8.50;3.72;;;14.60;87.10;;;;;;4950862;28;20040;-76
2023/08/26 05:35:42;;;;;;;7.63;3.85;;;14.60;87.00;;;;;;4942006;28;20470;-75
2023/08/26 05:38:07;;;;;;;6.90;3.45;;;14.60;86.90;;;;;;4950517;28;20462;-78
2023/08/26 05:40:34;;;;;;;8.27;3.95;;;14.60;86.80;;;;;;4950408;28;20113;-77
2023/08/26 05:43:00;;;;;;;7.32;3.75;;;14.60;86.50;;;;;;4948489;28;20043;-79
2023/08/26 05:45:26;;;;;;;9.32;3.65;;;14.60;86.60;;;;;;4949264;28;20073;-77
2023/08/26 05:47:52;;;;;;;8.82;3.58;;;14.70;86.30;;;;;;4966773;28;20031;-78
2023/08/26 05:50:18;;;;;;;12.07;4.10;;;14.60;86.10;;;;;;4969126;28;20039;-76
2023/08/26 05:52:44;;;;;;;7.65;3.45;;;14.70;86.30;;;;;;4957889;28;20049;-76
2023/08/26 05:55:11;;;;;;;8.88;3.78;;;14.70;86.00;;;;;;4961183;28;20310;-75
2023/08/26 05:57:37;;;;;;;7.05;4.05;;;14.80;86.10;;;;;;4942026;28;20508;-76
2023/08/26 06:00:05;;;;;;;9.38;4.40;;;14.80;86.10;;;;;;4938375;29;20055;-77
2023/08/26 06:02:31;;;;;;;10.90;4.15;;;14.80;85.70;;;;;;4938068;28;20045;-78
2023/08/26 06:04:56;;;;;;;10.85;3.60;;;14.90;85.70;;;;;;4940591;28;20036;-77
2023/08/26 06:07:22;;;;;;;11.30;4.15;;;14.90;85.70;;;;;;4944028;28;20123;-78
2023/08/26 06:09:48;;;;;;;9.00;3.53;;;14.90;85.70;;;;;;4969300;28;20027;-78
2023/08/26 06:12:13;;;;;;;6.40;3.60;;;15.00;85.80;;;;;;4992851;28;20120;-78
2023/08/26 06:14:39;;;;;;;11.70;4.05;;;15.00;85.60;;;;;;4963648;28;20066;-78
2023/08/26 06:17:05;;;;;;;7.20;3.13;;;15.00;85.60;;;;;;4972681;28;20035;-78
2023/08/26 06:19:30;;;;;;;8.32;4.18;;;15.10;85.70;;;;;;4942774;28;20097;-77
2023/08/26 06:21:56;;;;;;;9.23;4.00;;;15.10;85.40;;;;;;4951647;28;20042;-78
2023/08/26 06:24:22;;;;;;;7.90;3.63;;;15.20;85.00;;;;;;4966372;28;20062;-77
2023/08/26 06:26:47;;;;;;;6.78;3.15;;;15.30;84.80;;;;;;4984531;28;20072;-78
2023/08/26 06:29:15;;;;;;;7.28;3.25;;;15.40;84.90;;;;;;4989478;28;20046;-78
2023/08/26 06:31:42;;;;;;;9.07;3.50;;;15.40;84.70;;;;;;4980677;28;20034;-78
2023/08/26 06:34:07;;;;;;;9.05;3.50;;;15.50;84.70;;;;;;4971494;28;20047;-78
2023/08/26 06:36:33;;;;;;;8.15;3.80;;;15.60;84.70;;;;;;4961452;28;20031;-79
2023/08/26 06:38:59;;;;;;;8.85;3.63;;;15.60;84.70;;;;;;4967551;28;20133;-79
2023/08/26 06:41:25;;;;;;;6.10;3.00;;;15.70;84.30;;;;;;4961257;28;20117;-79
2023/08/26 06:43:50;;;;;;;8.07;3.60;;;15.80;84.00;;;;;;4968186;28;20129;-78
2023/08/26 06:46:16;;;;;;;5.57;3.15;;;16.00;84.00;;;;;;4962136;28;20038;-79
2023/08/26 06:48:42;;;;;;;10.27;3.38;;;16.10;83.50;;;;;;4975175;28;20051;-78
2023/08/26 06:51:07;;;;;;;10.98;3.40;;;16.20;83.40;;;;;;4964395;28;20435;-78
2023/08/26 06:53:33;;;;;;;7.40;3.13;;;16.40;82.50;;;;;;4993152;28;20039;-78
2023/08/26 06:55:59;;;;;;;10.50;3.40;;;16.50;82.30;;;;;;4968561;28;20384;-78
2023/08/26 06:58:24;;;;;;;6.30;2.88;;;16.50;81.90;;;;;;4951706;28;20389;-78
2023/08/26 07:00:52;;;;;;;8.07;2.92;;;16.40;81.90;;;;;;4945060;28;20473;-78
2023/08/26 07:03:18;;;;;;;7.60;3.20;;;16.40;81.70;;;;;;4953614;28;20053;-78
2023/08/26 07:05:45;;;;;;;6.93;3.30;;;16.60;81.70;;;;;;4967957;28;20143;-78
2023/08/26 07:08:12;;;;;;;8.40;2.72;;;16.70;81.80;;;;;;4956457;28;20041;-78
2023/08/26 07:10:38;;;;;;;6.45;2.80;;;16.90;81.80;;;;;;4961029;28;20055;-78
2023/08/26 07:13:04;;;;;;;6.60;2.83;;;17.10;81.80;;;;;;4949256;28;20062;-79
2023/08/26 07:15:29;;;;;;;5.82;2.80;;;17.10;80.40;;;;;;4944706;28;20393;-79
2023/08/26 07:17:55;;;;;;;10.13;3.08;;;17.30;79.90;;;;;;4950024;28;20035;-79
2023/08/26 07:20:21;;;;;;;9.32;2.97;;;17.50;79.60;;;;;;4948237;28;20027;-78
2023/08/26 07:22:48;;;;;;;7.28;2.25;;;17.60;78.60;;;;;;4946203;28;20049;-78
2023/08/26 07:25:13;;;;;;;6.32;2.60;;;17.80;79.20;;;;;;4973539;28;20061;-78
2023/08/26 07:27:40;;;;;;;8.80;2.80;;;17.90;78.40;;;;;;4960373;28;20067;-78
2023/08/26 07:30:06;;;;;;;5.00;2.47;;;17.80;78.50;;;;;;4948193;28;20031;-78
2023/08/26 07:32:32;;;;;;;6.35;2.40;;;17.80;77.90;;;;;;4952733;28;20047;-78
2023/08/26 07:34:57;;;;;;;6.35;2.45;;;17.80;77.60;;;;;;4953141;28;20038;-78
2023/08/26 07:37:23;;;;;;;5.55;2.30;;;17.90;77.40;;;;;;4951580;28;20047;-78
2023/08/26 07:39:49;;;;;;;7.45;2.40;;;18.00;77.30;;;;;;4937392;28;20039;-78
2023/08/26 07:42:16;;;;;;;5.25;2.17;;;18.10;77.10;;;;;;4952015;28;20061;-78
2023/08/26 07:44:42;;;;;;;4.60;2.35;;;18.30;76.00;;;;;;4953428;28;20505;-78
2023/08/26 07:47:07;;;;;;;7.75;2.30;;;18.30;76.00;;;;;;4950044;28;20031;-78
2023/08/26 07:49:33;;;;;;;6.82;2.83;;;18.50;75.80;;;;;;4947053;28;20047;-78
2023/08/26 07:51:59;;;;;;;6.60;2.60;;;18.70;75.30;;;;;;4953665;28;20086;-78
2023/08/26 07:54:25;;;;;;;6.65;2.30;;;18.80;74.50;;;;;;4946847;28;20119;-78
2023/08/26 07:56:50;;;;;;;5.82;2.35;;;19.00;74.30;;;;;;4944669;28;20070;-78
2023/08/26 07:59:16;;;;;;;4.35;1.90;;;19.20;73.80;;;;;;4942891;28;20054;-78
2023/08/26 08:01:42;;;;;;;10.52;2.45;;;19.30;73.60;;;;;;4945691;28;20071;-78
2023/08/26 08:04:07;;;;;;;7.45;2.50;;;19.30;73.30;;;;;;4938291;28;20474;-78
2023/08/26 08:06:33;;;;;;;6.47;2.60;;;19.40;72.50;;;;;;4938865;28;20123;-78
2023/08/26 08:08:59;;;;;;;7.68;2.38;;;19.50;72.30;;;;;;4935835;28;20039;-78
2023/08/26 08:11:24;;;;;;;7.25;2.50;;;19.40;72.10;;;;;;4949703;28;20516;-78
2023/08/26 08:13:50;;;;;;;7.00;2.22;;;19.50;72.00;;;;;;4980903;28;20035;-78
2023/08/26 08:16:16;;;;;;;11.23;2.70;;;19.60;71.10;;;;;;4950549;28;20458;-78
2023/08/26 08:18:42;;;;;;;5.30;1.80;;;19.70;70.50;;;;;;4955218;28;20047;-79
2023/08/26 08:21:08;;;;;;;5.63;2.05;;;19.70;71.20;;;;;;4961013;28;20110;-78
2023/08/26 08:23:35;;;;;;;6.85;2.10;;;19.90;71.00;;;;;;4958691;28;20078;-78
2023/08/26 08:26:01;;;;;;;5.88;2.20;;;20.10;70.80;;;;;;4951114;28;20481;-78
2023/08/26 08:28:27;;;;;;;6.30;2.45;;;20.10;69.60;;;;;;4952684;28;20043;-78
2023/08/26 08:30:53;;;;;;;5.13;2.20;;;20.20;69.30;;;;;;4953667;28;20042;-78
2023/08/26 08:33:18;;;;;;;5.95;2.30;;;20.30;69.30;;;;;;4955016;28;20039;-79
2023/08/26 08:35:44;;;;;;;6.78;2.20;;;20.20;68.70;;;;;;4953676;28;20034;-78
2023/08/26 08:38:10;;;;;;;6.80;2.85;;;20.40;68.70;;;;;;4950948;28;20049;-79
2023/08/26 08:40:37;;;;;;;7.35;2.45;;;20.50;68.20;;;;;;4951610;28;20043;-78
2023/08/26 08:43:05;;;;;;;5.47;2.03;;;20.40;68.20;;;;;;4946664;28;20097;-78
2023/08/26 08:45:33;;;;;;;5.28;2.40;;;20.40;68.60;;;;;;4961103;28;20045;-78
2023/08/26 08:47:59;;;;;;;6.53;2.60;;;20.50;69.00;;;;;;4969717;28;20031;-77
2023/08/26 08:50:24;;;;;;;7.45;2.60;;;20.50;67.80;;;;;;4978803;28;20061;-78
2023/08/26 08:52:55;;;;;;;6.35;2.00;;;20.80;67.30;;;;;;4963695;28;20496;-78
2023/08/26 08:55:22;;;;;;;5.65;2.13;;;20.90;66.70;;;;;;4951552;28;20439;-77
2023/08/26 08:57:51;;;;;;;9.45;2.60;;;21.00;66.20;;;;;;4946731;28;20077;-78
2023/08/26 09:00:18;;;;;;;7.57;2.30;;;20.90;66.50;;;;;;4966603;28;20054;-78
2023/08/26 09:02:46;;;;;;;5.70;2.40;;;21.20;66.40;;;;;;4990661;28;20032;-77
2023/08/26 09:05:12;;;;;;;6.60;2.50;;;21.20;65.90;;;;;;4951416;28;20454;-77
2023/08/26 09:07:40;;;;;;;7.82;2.90;;;21.30;65.80;;;;;;4946278;28;20043;-78
2023/08/26 09:10:08;;;;;;;5.20;2.38;;;21.10;65.90;;;;;;4944530;28;20030;-78
2023/08/26 09:12:34;;;;;;;8.95;2.50;;;21.20;65.90;;;;;;4941509;28;20045;-77
2023/08/26 09:15:00;;;;;;;10.73;3.08;;;21.50;65.70;;;;;;4959785;28;20114;-77
2023/08/26 09:17:28;;;;;;;7.05;2.70;;;21.60;65.00;;;;;;4968496;28;20038;-78
2023/08/26 09:20:04;;;;;;;5.90;2.42;;;21.60;65.70;;;;;;4952827;28;20473;-78
2023/08/26 09:22:32;;;;;;;6.72;2.72;;;21.80;64.80;;;;;;4953112;28;20108;-78
2023/08/26 09:25:02;;;;;;;7.15;2.33;;;21.70;65.00;;;;;;4967100;28;20030;-78
2023/08/26 09:27:32;;;;;;;4.60;2.00;;;21.80;63.80;;;;;;4957034;28;20047;-78
2023/08/26 09:29:58;;;;;;;4.53;1.90;;;21.60;64.20;;;;;;4948779;28;20035;-77
2023/08/26 09:32:43;;;;;;;4.82;2.40;;;21.60;64.80;;;;;;4942165;28;20046;-78
2023/08/26 09:35:13;;;;;;;5.18;2.38;;;21.80;64.10;;;;;;4971417;28;20034;-77
2023/08/26 09:37:48;;;;;;;5.53;2.05;;;21.90;63.40;;;;;;4953743;28;20092;-77
2023/08/26 09:40:16;;;;;;;;;;;21.90;63.70;;;;;;4971098;28;20023;-77
2023/08/26 09:42:42;;;;;;;5.57;2.22;;;21.80;62.70;;;;;;4966708;28;19914;-77
2023/08/26 09:45:09;;;;;;;8.82;2.40;;;21.70;62.90;;;;;;4969714;28;20031;-78
2023/08/26 09:47:36;;;;;;;6.72;1.92;;;21.80;63.20;;;;;;4960133;28;20035;-77
2023/08/26 09:50:03;;;;;;;6.03;2.33;;;22.00;64.10;;;;;;4977591;28;20293;-77
2023/08/26 09:52:28;;;;;;;5.45;2.03;;;21.80;63.30;;;;;;4943727;28;20071;-77
2023/08/26 09:54:56;;;;;;;4.70;2.10;;;22.10;63.30;;;;;;4947751;28;20066;-78
2023/08/26 09:57:22;;;;;;;4.10;1.60;;;22.20;62.80;;;;;;4948568;28;20081;-77
2023/08/26 09:59:48;;;;;;;5.30;1.85;;;22.50;62.80;;;;;;4949054;28;20027;-78
2023/08/26 10:02:21;;;;;;;4.28;1.70;;;22.70;61.10;;;;;;4944675;28;20288;-77
2023/08/26 10:04:56;;;;;;;5.93;1.85;;;22.50;60.50;;;;;;4959720;28;20489;-77
2023/08/26 10:07:27;;;;;;;5.13;1.95;;;22.30;61.40;;;;;;4956730;28;20085;-78
2023/08/26 10:10:03;;;;;;;4.38;1.98;;;22.40;61.40;;;;;;4941150;28;20027;-78
2023/08/26 10:12:36;;;;;;;7.05;2.00;;;22.40;61.70;;;;;;4956826;28;20124;-78
2023/08/26 10:15:03;;;;;;;5.55;1.67;;;22.50;60.40;;;;;;4948133;28;20122;-77
2023/08/26 10:17:31;;;;;;;5.10;1.70;;;22.30;60.00;;;;;;4962859;28;20427;-77
2023/08/26 10:19:58;;;;;;;3.83;1.35;;;22.20;60.80;;;;;;4963092;28;20106;-77
2023/08/26 10:22:26;;;;;;;3.60;1.50;;;22.20;59.90;;;;;;4959153;28;20041;-78
2023/08/26 10:24:53;;;;;;;4.38;1.75;;;22.10;60.20;;;;;;4959604;28;20435;-78
2023/08/26 10:27:19;;;;;;;5.72;1.75;;;22.10;60.60;;;;;;4967228;28;20051;-78
2023/08/26 10:29:47;;;;;;;5.22;2.03;;;21.80;61.20;;;;;;4963154;28;20030;-77
2023/08/26 10:32:19;;;;;;;5.45;1.77;;;21.60;61.60;;;;;;4960395;28;20062;-77
2023/08/26 10:34:56;;;;;;;4.03;1.60;;;21.70;62.10;;;;;;5009369;28;20383;-77
2023/08/26 10:37:30;;;;;;;3.47;1.58;;;22.30;61.00;;;;;;4965333;28;20160;-78
2023/08/26 10:39:56;;;;;;;5.60;1.95;;;23.00;60.70;;;;;;4951292;28;20035;-78
2023/08/26 10:42:23;;;;;;;6.13;2.17;;;23.30;58.70;;;;;;4961939;28;20046;-78
2023/08/26 10:44:56;;;;;;;7.30;1.83;;;23.30;58.30;;;;;;4965647;28;20023;-78
2023/08/26 10:47:51;;;;;;;9.27;2.00;;;23.20;58.10;;;;;;4965830;28;20043;-78
2023/08/26 10:50:25;;;;;;;5.57;1.65;;;23.20;58.30;;;;;;4961968;28;20378;-78
2023/08/26 10:52:57;;;;;;;4.88;1.55;;;23.10;58.90;;;;;;4964013;28;20129;-79
2023/08/26 10:55:25;;;;;;;7.28;2.20;;;23.30;57.40;;;;;;4949656;28;20076;-78
2023/08/26 10:58:01;;;;;;;6.05;1.50;;;23.60;56.70;;;;;;4952809;28;20035;-78
2023/08/26 11:00:27;;;;;;;5.13;1.90;;;23.80;56.30;;;;;;4955106;28;20423;-79
2023/08/26 11:02:54;;;;;;;4.72;1.60;;;24.10;55.10;;;;;;4950697;28;20043;-78
2023/08/26 11:05:21;;;;;;;6.47;1.70;;;24.20;55.10;;;;;;4966818;28;20520;-79
2023/08/26 11:07:47;;;;;;;3.60;1.52;;;24.10;54.30;;;;;;4963110;28;20035;-79
2023/08/26 11:10:39;;;;;;;4.38;1.40;;;24.10;54.70;;;;;;4947106;28;20027;-78
2023/08/26 11:13:09;;;;;;;4.28;1.60;;;24.20;55.20;;;;;;4953102;28;20031;-78
2023/08/26 11:15:37;;;;;;;4.70;1.60;;;23.70;55.10;;;;;;4948804;28;20023;-78
2023/08/26 11:18:07;;;;;;;3.47;1.30;;;23.20;55.90;;;;;;4953141;28;20085;-78
2023/08/26 11:20:34;;;;;;;4.95;1.40;;;23.00;57.80;;;;;;4946568;28;20031;-79
2023/08/26 11:23:02;;;;;;;6.25;1.60;;;23.00;57.50;;;;;;4954114;28;20070;-79
2023/08/26 11:25:27;;;;;;;3.80;1.50;;;22.90;58.50;;;;;;4958711;28;20082;-79
2023/08/26 11:27:54;;;;;;;3.13;1.73;;;23.10;58.30;;;;;;4952928;28;20501;-79
2023/08/26 11:30:20;;;;;;;4.93;1.30;;;23.40;57.30;;;;;;4945687;28;20058;-79
2023/08/26 11:32:49;;;;;;;4.43;1.40;;;23.60;57.40;;;;;;4945461;28;20541;-78
2023/08/26 11:35:17;;;;;;;5.00;1.52;;;23.90;57.10;;;;;;4941696;28;20052;-77
2023/08/26 11:37:45;;;;;;;4.22;1.30;;;24.30;55.30;;;;;;4964205;28;20053;-77
2023/08/26 11:40:11;;;;;;;4.78;1.63;;;24.40;54.50;;;;;;4966427;28;20080;-77
2023/08/26 11:42:37;;;;;;;6.22;1.98;;;24.50;54.70;;;;;;4956828;28;20404;-78
2023/08/26 11:45:08;;;;;;;3.97;1.30;;;24.60;55.20;;;;;;4965134;28;20027;-77
2023/08/26 11:47:34;;;;;;;4.45;1.67;;;24.80;54.60;;;;;;4952998;28;20134;-77
2023/08/26 11:50:00;;;;;;;5.28;1.63;;;24.90;53.80;;;;;;4951395;28;20513;-79
2023/08/26 11:52:33;;;;;;;4.03;1.50;;;25.00;54.80;;;;;;4948053;28;20109;-78
2023/08/26 11:55:03;;;;;;;4.60;1.88;;;24.60;53.00;;;;;;4953567;28;20032;-79
2023/08/26 11:57:31;;;;;;;7.35;1.75;;;24.40;54.20;;;;;;4956423;28;20047;-78
2023/08/26 12:00:12;;;;;;;5.90;1.67;;;22.80;58.80;;;;;;4952097;28;20477;-79
2023/08/26 12:02:38;;;;;;;3.78;1.88;;;22.10;61.80;;;;;;4954864;28;20041;-77
2023/08/26 12:05:04;;;;;;;6.22;2.20;;;21.50;63.30;;;;;;4969256;28;20042;-77
2023/08/26 12:07:30;;;;;;;8.07;2.50;;;21.10;66.00;;;;;;4956379;28;20035;-77
2023/08/26 12:09:57;;;;;;;4.90;2.05;;;20.60;70.60;;;;;;4959826;28;20033;-77
2023/08/26 12:12:23;;;;;;;6.10;2.40;;;20.40;71.10;;;;;;4945608;28;20048;-77
2023/08/26 12:14:49;;;;;;;12.18;2.85;;;20.60;72.10;;;;;;4948195;28;20051;-77
2023/08/26 12:17:16;;;;;;;6.03;2.10;;;20.60;72.70;;;;;;4945012;28;20043;-77
2023/08/26 12:19:42;;;;;;;8.02;1.63;;;20.50;70.50;;;;;;4967416;28;20051;-77
2023/08/26 12:22:09;;;;;;;7.65;2.13;;;20.20;70.70;;;;;;4968913;28;20063;-78
2023/08/26 12:24:38;;;;;;;10.80;2.67;;;20.30;71.00;;;;;;4978715;28;20049;-77
2023/08/26 12:27:11;;;;;;;6.68;2.10;;;20.20;69.50;;;;;;4959359;28;20146;-76
2023/08/26 12:29:37;;;;;;;4.90;1.65;;;19.90;70.40;;;;;;4964173;28;20066;-78
2023/08/26 12:32:04;;;;;;;4.85;1.70;;;20.00;71.50;;;;;;4995559;28;20067;-78
2023/08/26 12:34:30;;;;;;;5.20;2.13;;;19.80;71.40;;;;;;4971296;28;20054;-78
2023/08/26 12:36:56;;;;;;;5.43;1.90;;;20.00;71.20;;;;;;4966310;28;20816;-77
2023/08/26 12:39:26;;;;;;;6.10;2.25;;;19.70;72.20;;;;;;4961875;28;20047;-77
2023/08/26 12:41:55;;;;;;;5.63;2.03;;;19.80;72.80;;;;;;4965768;28;20031;-78
2023/08/26 12:44:22;;;;;;;2.95;1.50;;;19.90;73.10;;;;;;4966219;28;20043;-79